sensor_id;sensor_type;location;lat;lon;timestamp;P1;durP1;ratioP1;P2;durP2;ratioP2
11084;SDS011;5596;46.826;8.650;2022-10-04T00:00:51;1.30;;;0.97;;
11084;SDS011;5596;46.826;8.650;2022-10-04T00:03:25;1.30;;;1.00;;
11084;SDS011;5596;46.826;8.650;2022-10-04T00:05:57;2.00;;;1.00;;
11084;SDS011;5596;46.826;8.650;2022-10-04T00:08:27;2.13;;;1.07;;
11084;SDS011;5596;46.826;8.650;2022-10-04T00:11:03;2.30;;;1.00;;
11084;SDS011;5596;46.826;8.650;2022-10-04T00:13:32;2.63;;;0.90;;
11084;SDS011;5596;46.826;8.650;2022-10-04T00:16:05;2.63;;;0.93;;
11084;SDS011;5596;46.826;8.650;2022-10-04T00:18:36;1.10;;;1.00;;
11084;SDS011;5596;46.826;8.650;2022-10-04T00:21:05;5.27;;;1.00;;
11084;SDS011;5596;46.826;8.650;2022-10-04T00:23:44;1.07;;;1.00;;
11084;SDS011;5596;46.826;8.650;2022-10-04T00:26:14;1.00;;;0.90;;
11084;SDS011;5596;46.826;8.650;2022-10-04T00:29:34;3.27;;;0.97;;
11084;SDS011;5596;46.826;8.650;2022-10-04T00:34:56;1.40;;;0.90;;
11084;SDS011;5596;46.826;8.650;2022-10-04T00:37:24;1.60;;;1.00;;
11084;SDS011;5596;46.826;8.650;2022-10-04T00:39:59;3.40;;;1.00;;
11084;SDS011;5596;46.826;8.650;2022-10-04T00:42:40;1.70;;;0.90;;
11084;SDS011;5596;46.826;8.650;2022-10-04T00:45:16;3.93;;;2.10;;
11084;SDS011;5596;46.826;8.650;2022-10-04T00:48:13;5.57;;;3.50;;
11084;SDS011;5596;46.826;8.650;2022-10-04T00:50:57;8.13;;;4.60;;
11084;SDS011;5596;46.826;8.650;2022-10-04T00:53:40;9.90;;;3.67;;
11084;SDS011;5596;46.826;8.650;2022-10-04T00:56:17;6.73;;;3.13;;
11084;SDS011;5596;46.826;8.650;2022-10-04T00:59:02;9.70;;;5.17;;
11084;SDS011;5596;46.826;8.650;2022-10-04T01:01:50;7.70;;;4.43;;
11084;SDS011;5596;46.826;8.650;2022-10-04T01:04:34;7.33;;;3.93;;
11084;SDS011;5596;46.826;8.650;2022-10-04T01:07:06;5.43;;;3.17;;
11084;SDS011;5596;46.826;8.650;2022-10-04T01:09:35;4.10;;;1.70;;
11084;SDS011;5596;46.826;8.650;2022-10-04T01:12:13;3.13;;;2.00;;
11084;SDS011;5596;46.826;8.650;2022-10-04T01:14:49;4.73;;;2.40;;
11084;SDS011;5596;46.826;8.650;2022-10-04T01:17:21;4.70;;;2.20;;
11084;SDS011;5596;46.826;8.650;2022-10-04T01:19:52;5.00;;;1.90;;
11084;SDS011;5596;46.826;8.650;2022-10-04T01:22:30;3.20;;;1.80;;
11084;SDS011;5596;46.826;8.650;2022-10-04T01:25:01;3.50;;;2.27;;
11084;SDS011;5596;46.826;8.650;2022-10-04T01:27:35;2.50;;;1.57;;
11084;SDS011;5596;46.826;8.650;2022-10-04T01:30:08;2.40;;;1.20;;
11084;SDS011;5596;46.826;8.650;2022-10-04T01:32:36;1.73;;;1.20;;
11084;SDS011;5596;46.826;8.650;2022-10-04T01:35:06;3.30;;;1.20;;
11084;SDS011;5596;46.826;8.650;2022-10-04T01:37:36;1.50;;;0.80;;
11084;SDS011;5596;46.826;8.650;2022-10-04T01:40:06;1.53;;;0.90;;
11084;SDS011;5596;46.826;8.650;2022-10-04T01:42:35;1.50;;;0.97;;
11084;SDS011;5596;46.826;8.650;2022-10-04T01:45:09;3.37;;;1.03;;
11084;SDS011;5596;46.826;8.650;2022-10-04T01:47:50;0.90;;;0.90;;
11084;SDS011;5596;46.826;8.650;2022-10-04T01:50:22;1.10;;;1.00;;
11084;SDS011;5596;46.826;8.650;2022-10-04T01:52:55;3.60;;;1.03;;
11084;SDS011;5596;46.826;8.650;2022-10-04T01:55:27;1.60;;;0.90;;
11084;SDS011;5596;46.826;8.650;2022-10-04T01:57:59;2.00;;;0.97;;
11084;SDS011;5596;46.826;8.650;2022-10-04T02:00:36;1.00;;;0.90;;
11084;SDS011;5596;46.826;8.650;2022-10-04T02:03:08;1.30;;;1.00;;
11084;SDS011;5596;46.826;8.650;2022-10-04T02:05:43;2.33;;;1.50;;
11084;SDS011;5596;46.826;8.650;2022-10-04T02:08:21;0.80;;;0.80;;
11084;SDS011;5596;46.826;8.650;2022-10-04T02:10:51;4.57;;;1.90;;
11084;SDS011;5596;46.826;8.650;2022-10-04T02:13:19;2.07;;;1.10;;
11084;SDS011;5596;46.826;8.650;2022-10-04T02:15:50;2.47;;;1.10;;
11084;SDS011;5596;46.826;8.650;2022-10-04T02:18:19;1.03;;;0.90;;
11084;SDS011;5596;46.826;8.650;2022-10-04T02:20:48;1.43;;;1.00;;
11084;SDS011;5596;46.826;8.650;2022-10-04T02:23:17;1.10;;;1.00;;
11084;SDS011;5596;46.826;8.650;2022-10-04T02:25:47;1.10;;;0.83;;
11084;SDS011;5596;46.826;8.650;2022-10-04T02:28:14;2.70;;;1.00;;
11084;SDS011;5596;46.826;8.650;2022-10-04T02:30:44;3.80;;;1.10;;
11084;SDS011;5596;46.826;8.650;2022-10-04T02:33:37;3.77;;;0.90;;
11084;SDS011;5596;46.826;8.650;2022-10-04T02:36:06;2.20;;;0.90;;
11084;SDS011;5596;46.826;8.650;2022-10-04T02:38:36;1.10;;;1.00;;
11084;SDS011;5596;46.826;8.650;2022-10-04T02:41:09;1.07;;;0.97;;
11084;SDS011;5596;46.826;8.650;2022-10-04T02:43:47;3.40;;;1.00;;
11084;SDS011;5596;46.826;8.650;2022-10-04T02:46:20;0.83;;;0.83;;
11084;SDS011;5596;46.826;8.650;2022-10-04T02:48:52;0.83;;;0.83;;
11084;SDS011;5596;46.826;8.650;2022-10-04T02:51:24;2.70;;;1.10;;
11084;SDS011;5596;46.826;8.650;2022-10-04T02:54:03;2.13;;;1.10;;
11084;SDS011;5596;46.826;8.650;2022-10-04T02:56:36;0.90;;;0.87;;
11084;SDS011;5596;46.826;8.650;2022-10-04T02:59:04;3.33;;;0.80;;
11084;SDS011;5596;46.826;8.650;2022-10-04T03:01:39;3.00;;;1.17;;
11084;SDS011;5596;46.826;8.650;2022-10-04T03:04:12;0.80;;;0.80;;
11084;SDS011;5596;46.826;8.650;2022-10-04T03:06:40;1.03;;;1.00;;
11084;SDS011;5596;46.826;8.650;2022-10-04T03:09:12;1.00;;;0.90;;
11084;SDS011;5596;46.826;8.650;2022-10-04T03:11:40;1.77;;;1.23;;
11084;SDS011;5596;46.826;8.650;2022-10-04T03:14:14;1.83;;;1.40;;
11084;SDS011;5596;46.826;8.650;2022-10-04T03:16:46;4.93;;;1.30;;
11084;SDS011;5596;46.826;8.650;2022-10-04T03:19:15;1.77;;;1.67;;
11084;SDS011;5596;46.826;8.650;2022-10-04T03:21:45;12.80;;;3.97;;
11084;SDS011;5596;46.826;8.650;2022-10-04T03:24:17;11.07;;;10.00;;
11084;SDS011;5596;46.826;8.650;2022-10-04T03:26:48;8.00;;;7.20;;
11084;SDS011;5596;46.826;8.650;2022-10-04T03:29:18;6.40;;;4.40;;
11084;SDS011;5596;46.826;8.650;2022-10-04T03:31:49;8.03;;;5.80;;
11084;SDS011;5596;46.826;8.650;2022-10-04T03:34:22;2.87;;;2.47;;
11084;SDS011;5596;46.826;8.650;2022-10-04T03:36:51;3.43;;;2.43;;
11084;SDS011;5596;46.826;8.650;2022-10-04T03:39:27;3.73;;;2.60;;
11084;SDS011;5596;46.826;8.650;2022-10-04T03:41:58;5.33;;;2.73;;
11084;SDS011;5596;46.826;8.650;2022-10-04T03:44:28;1.80;;;1.60;;
11084;SDS011;5596;46.826;8.650;2022-10-04T03:46:56;4.57;;;1.40;;
11084;SDS011;5596;46.826;8.650;2022-10-04T03:49:28;3.13;;;1.40;;
11084;SDS011;5596;46.826;8.650;2022-10-04T03:51:59;2.30;;;1.70;;
11084;SDS011;5596;46.826;8.650;2022-10-04T03:54:29;3.93;;;1.67;;
11084;SDS011;5596;46.826;8.650;2022-10-04T03:56:57;3.37;;;1.40;;
11084;SDS011;5596;46.826;8.650;2022-10-04T03:59:26;1.23;;;1.13;;
11084;SDS011;5596;46.826;8.650;2022-10-04T04:01:59;1.50;;;1.20;;
11084;SDS011;5596;46.826;8.650;2022-10-04T04:04:34;1.10;;;1.00;;
11084;SDS011;5596;46.826;8.650;2022-10-04T04:07:10;4.60;;;2.60;;
11084;SDS011;5596;46.826;8.650;2022-10-04T04:09:46;1.20;;;1.10;;
11084;SDS011;5596;46.826;8.650;2022-10-04T04:12:19;4.97;;;1.07;;
11084;SDS011;5596;46.826;8.650;2022-10-04T04:14:50;3.57;;;1.10;;
11084;SDS011;5596;46.826;8.650;2022-10-04T04:17:29;4.23;;;2.40;;
11084;SDS011;5596;46.826;8.650;2022-10-04T04:20:02;2.37;;;1.13;;
11084;SDS011;5596;46.826;8.650;2022-10-04T04:22:33;1.37;;;0.97;;
11084;SDS011;5596;46.826;8.650;2022-10-04T04:25:05;3.50;;;1.10;;
11084;SDS011;5596;46.826;8.650;2022-10-04T04:27:39;2.00;;;1.30;;
11084;SDS011;5596;46.826;8.650;2022-10-04T04:30:11;1.63;;;1.03;;
11084;SDS011;5596;46.826;8.650;2022-10-04T04:32:43;1.30;;;1.00;;
11084;SDS011;5596;46.826;8.650;2022-10-04T04:35:21;2.97;;;1.10;;
11084;SDS011;5596;46.826;8.650;2022-10-04T04:38:05;1.53;;;0.90;;
11084;SDS011;5596;46.826;8.650;2022-10-04T04:40:43;1.30;;;1.10;;
11084;SDS011;5596;46.826;8.650;2022-10-04T04:43:12;3.10;;;1.10;;
11084;SDS011;5596;46.826;8.650;2022-10-04T04:45:43;2.07;;;1.73;;
11084;SDS011;5596;46.826;8.650;2022-10-04T04:48:13;2.23;;;1.40;;
11084;SDS011;5596;46.826;8.650;2022-10-04T04:50:42;1.30;;;1.20;;
11084;SDS011;5596;46.826;8.650;2022-10-04T04:53:17;2.30;;;0.90;;
11084;SDS011;5596;46.826;8.650;2022-10-04T04:55:50;4.50;;;1.10;;
11084;SDS011;5596;46.826;8.650;2022-10-04T04:58:22;1.30;;;1.20;;
11084;SDS011;5596;46.826;8.650;2022-10-04T05:00:53;3.80;;;1.53;;
11084;SDS011;5596;46.826;8.650;2022-10-04T05:03:23;2.60;;;1.37;;
11084;SDS011;5596;46.826;8.650;2022-10-04T05:05:54;2.37;;;1.90;;
11084;SDS011;5596;46.826;8.650;2022-10-04T05:08:25;1.50;;;1.40;;
11084;SDS011;5596;46.826;8.650;2022-10-04T05:10:59;6.20;;;1.30;;
11084;SDS011;5596;46.826;8.650;2022-10-04T05:13:31;4.90;;;1.40;;
11084;SDS011;5596;46.826;8.650;2022-10-04T05:16:05;1.33;;;1.23;;
11084;SDS011;5596;46.826;8.650;2022-10-04T05:18:39;2.07;;;1.10;;
11084;SDS011;5596;46.826;8.650;2022-10-04T05:21:07;2.30;;;1.10;;
11084;SDS011;5596;46.826;8.650;2022-10-04T05:23:39;1.30;;;1.10;;
11084;SDS011;5596;46.826;8.650;2022-10-04T05:26:10;4.43;;;1.30;;
11084;SDS011;5596;46.826;8.650;2022-10-04T05:28:41;4.53;;;2.30;;
11084;SDS011;5596;46.826;8.650;2022-10-04T05:31:18;3.43;;;2.03;;
11084;SDS011;5596;46.826;8.650;2022-10-04T05:33:54;3.63;;;2.47;;
11084;SDS011;5596;46.826;8.650;2022-10-04T05:36:30;2.30;;;1.80;;
11084;SDS011;5596;46.826;8.650;2022-10-04T05:39:08;4.73;;;1.90;;
11084;SDS011;5596;46.826;8.650;2022-10-04T05:41:46;2.13;;;1.40;;
11084;SDS011;5596;46.826;8.650;2022-10-04T05:44:22;3.73;;;1.60;;
11084;SDS011;5596;46.826;8.650;2022-10-04T05:46:52;2.93;;;1.57;;
11084;SDS011;5596;46.826;8.650;2022-10-04T05:49:22;2.67;;;1.47;;
11084;SDS011;5596;46.826;8.650;2022-10-04T05:51:52;4.23;;;1.67;;
11084;SDS011;5596;46.826;8.650;2022-10-04T05:54:21;2.93;;;1.83;;
11084;SDS011;5596;46.826;8.650;2022-10-04T05:56:57;2.53;;;1.60;;
11084;SDS011;5596;46.826;8.650;2022-10-04T05:59:49;2.43;;;1.53;;
11084;SDS011;5596;46.826;8.650;2022-10-04T06:05:40;1.83;;;1.30;;
11084;SDS011;5596;46.826;8.650;2022-10-04T06:08:16;5.83;;;1.70;;
11084;SDS011;5596;46.826;8.650;2022-10-04T06:11:12;1.50;;;1.40;;
11084;SDS011;5596;46.826;8.650;2022-10-04T06:17:02;4.50;;;2.17;;
11084;SDS011;5596;46.826;8.650;2022-10-04T06:19:49;3.10;;;1.20;;
11084;SDS011;5596;46.826;8.650;2022-10-04T06:22:30;2.03;;;1.20;;
11084;SDS011;5596;46.826;8.650;2022-10-04T06:24:59;1.47;;;1.20;;
11084;SDS011;5596;46.826;8.650;2022-10-04T06:27:31;2.97;;;1.60;;
11084;SDS011;5596;46.826;8.650;2022-10-04T06:30:11;6.00;;;2.37;;
11084;SDS011;5596;46.826;8.650;2022-10-04T06:35:55;4.50;;;2.27;;
11084;SDS011;5596;46.826;8.650;2022-10-04T06:38:38;6.23;;;2.20;;
11084;SDS011;5596;46.826;8.650;2022-10-04T06:44:34;2.43;;;1.50;;
11084;SDS011;5596;46.826;8.650;2022-10-04T06:47:19;2.43;;;1.33;;
11084;SDS011;5596;46.826;8.650;2022-10-04T06:50:01;4.03;;;1.77;;
11084;SDS011;5596;46.826;8.650;2022-10-04T06:52:57;2.30;;;1.40;;
11084;SDS011;5596;46.826;8.650;2022-10-04T06:58:35;2.30;;;1.93;;
11084;SDS011;5596;46.826;8.650;2022-10-04T07:01:23;1.47;;;1.33;;
11084;SDS011;5596;46.826;8.650;2022-10-04T07:03:56;3.97;;;1.57;;
11084;SDS011;5596;46.826;8.650;2022-10-04T07:06:33;7.43;;;1.63;;
11084;SDS011;5596;46.826;8.650;2022-10-04T07:09:06;2.30;;;1.20;;
11084;SDS011;5596;46.826;8.650;2022-10-04T07:12:09;2.17;;;1.27;;
11084;SDS011;5596;46.826;8.650;2022-10-04T07:14:42;3.73;;;1.40;;
11084;SDS011;5596;46.826;8.650;2022-10-04T07:17:14;3.40;;;1.70;;
11084;SDS011;5596;46.826;8.650;2022-10-04T07:19:52;2.57;;;1.60;;
11084;SDS011;5596;46.826;8.650;2022-10-04T07:22:25;2.90;;;1.70;;
11084;SDS011;5596;46.826;8.650;2022-10-04T07:24:58;4.00;;;1.60;;
11084;SDS011;5596;46.826;8.650;2022-10-04T07:27:33;1.40;;;1.30;;
11084;SDS011;5596;46.826;8.650;2022-10-04T07:30:03;1.83;;;1.40;;
11084;SDS011;5596;46.826;8.650;2022-10-04T07:32:32;3.73;;;1.40;;
11084;SDS011;5596;46.826;8.650;2022-10-04T07:35:05;5.33;;;1.57;;
11084;SDS011;5596;46.826;8.650;2022-10-04T07:37:44;2.43;;;1.60;;
11084;SDS011;5596;46.826;8.650;2022-10-04T07:40:18;2.30;;;1.40;;
11084;SDS011;5596;46.826;8.650;2022-10-04T07:42:51;1.50;;;1.40;;
11084;SDS011;5596;46.826;8.650;2022-10-04T07:45:24;1.77;;;1.33;;
11084;SDS011;5596;46.826;8.650;2022-10-04T07:48:03;1.83;;;1.50;;
11084;SDS011;5596;46.826;8.650;2022-10-04T07:50:40;2.67;;;1.50;;
11084;SDS011;5596;46.826;8.650;2022-10-04T07:53:14;2.60;;;1.80;;
11084;SDS011;5596;46.826;8.650;2022-10-04T07:55:54;2.00;;;1.80;;
11084;SDS011;5596;46.826;8.650;2022-10-04T07:58:28;2.13;;;1.80;;
11084;SDS011;5596;46.826;8.650;2022-10-04T08:01:06;1.70;;;1.40;;
11084;SDS011;5596;46.826;8.650;2022-10-04T08:03:45;5.63;;;1.60;;
11084;SDS011;5596;46.826;8.650;2022-10-04T08:06:24;1.90;;;1.70;;
11084;SDS011;5596;46.826;8.650;2022-10-04T08:09:08;1.20;;;1.10;;
11084;SDS011;5596;46.826;8.650;2022-10-04T08:11:58;4.10;;;1.50;;
11084;SDS011;5596;46.826;8.650;2022-10-04T08:14:39;1.97;;;1.40;;
11084;SDS011;5596;46.826;8.650;2022-10-04T08:17:26;1.37;;;1.03;;
11084;SDS011;5596;46.826;8.650;2022-10-04T08:20:11;3.10;;;1.20;;
11084;SDS011;5596;46.826;8.650;2022-10-04T08:22:54;2.33;;;1.30;;
11084;SDS011;5596;46.826;8.650;2022-10-04T08:25:32;2.07;;;1.10;;
11084;SDS011;5596;46.826;8.650;2022-10-04T08:28:10;4.33;;;1.27;;
11084;SDS011;5596;46.826;8.650;2022-10-04T08:31:11;1.77;;;1.10;;
11084;SDS011;5596;46.826;8.650;2022-10-04T08:33:51;1.50;;;1.20;;
11084;SDS011;5596;46.826;8.650;2022-10-04T08:36:31;1.23;;;1.13;;
11084;SDS011;5596;46.826;8.650;2022-10-04T08:42:09;2.97;;;1.23;;
11084;SDS011;5596;46.826;8.650;2022-10-04T08:45:17;4.47;;;1.50;;
11084;SDS011;5596;46.826;8.650;2022-10-04T08:48:16;3.53;;;3.17;;
11084;SDS011;5596;46.826;8.650;2022-10-04T08:51:03;2.70;;;2.10;;
11084;SDS011;5596;46.826;8.650;2022-10-04T08:53:59;1.77;;;1.67;;
11084;SDS011;5596;46.826;8.650;2022-10-04T08:56:56;1.17;;;1.07;;
11084;SDS011;5596;46.826;8.650;2022-10-04T08:59:52;2.17;;;1.17;;
11084;SDS011;5596;46.826;8.650;2022-10-04T09:08:28;3.27;;;1.17;;
11084;SDS011;5596;46.826;8.650;2022-10-04T09:11:39;2.03;;;1.40;;
11084;SDS011;5596;46.826;8.650;2022-10-04T09:14:26;2.00;;;1.47;;
11084;SDS011;5596;46.826;8.650;2022-10-04T09:17:15;3.97;;;1.70;;
11084;SDS011;5596;46.826;8.650;2022-10-04T09:19:49;1.40;;;1.30;;
11084;SDS011;5596;46.826;8.650;2022-10-04T09:22:30;1.87;;;1.50;;
11084;SDS011;5596;46.826;8.650;2022-10-04T09:28:32;4.63;;;2.50;;
11084;SDS011;5596;46.826;8.650;2022-10-04T09:31:25;3.90;;;2.20;;
11084;SDS011;5596;46.826;8.650;2022-10-04T09:34:18;5.60;;;2.00;;
11084;SDS011;5596;46.826;8.650;2022-10-04T09:37:05;2.00;;;1.83;;
11084;SDS011;5596;46.826;8.650;2022-10-04T09:40:16;2.67;;;2.23;;
11084;SDS011;5596;46.826;8.650;2022-10-04T09:43:02;4.03;;;1.60;;
11084;SDS011;5596;46.826;8.650;2022-10-04T09:45:49;3.23;;;1.80;;
11084;SDS011;5596;46.826;8.650;2022-10-04T09:48:33;4.73;;;1.70;;
11084;SDS011;5596;46.826;8.650;2022-10-04T09:54:12;2.43;;;1.47;;
11084;SDS011;5596;46.826;8.650;2022-10-04T09:56:50;1.50;;;1.37;;
11084;SDS011;5596;46.826;8.650;2022-10-04T10:02:45;3.07;;;1.70;;
11084;SDS011;5596;46.826;8.650;2022-10-04T10:08:43;2.70;;;1.77;;
11084;SDS011;5596;46.826;8.650;2022-10-04T10:11:25;3.33;;;1.90;;
11084;SDS011;5596;46.826;8.650;2022-10-04T10:14:28;2.77;;;1.87;;
11084;SDS011;5596;46.826;8.650;2022-10-04T10:17:12;1.87;;;1.63;;
11084;SDS011;5596;46.826;8.650;2022-10-04T10:19:49;1.93;;;1.40;;
11084;SDS011;5596;46.826;8.650;2022-10-04T10:25:39;2.80;;;1.30;;
11084;SDS011;5596;46.826;8.650;2022-10-04T10:28:21;1.83;;;1.50;;
11084;SDS011;5596;46.826;8.650;2022-10-04T10:31:06;1.80;;;1.50;;
11084;SDS011;5596;46.826;8.650;2022-10-04T10:37:04;2.97;;;1.30;;
11084;SDS011;5596;46.826;8.650;2022-10-04T10:39:59;2.10;;;1.47;;
11084;SDS011;5596;46.826;8.650;2022-10-04T10:42:54;3.00;;;1.60;;
11084;SDS011;5596;46.826;8.650;2022-10-04T10:48:34;1.67;;;1.57;;
11084;SDS011;5596;46.826;8.650;2022-10-04T10:57:33;3.83;;;1.40;;
11084;SDS011;5596;46.826;8.650;2022-10-04T11:00:17;1.27;;;1.10;;
11084;SDS011;5596;46.826;8.650;2022-10-04T11:02:52;1.70;;;1.40;;
11084;SDS011;5596;46.826;8.650;2022-10-04T11:08:44;9.30;;;1.80;;
11084;SDS011;5596;46.826;8.650;2022-10-04T11:11:41;1.50;;;1.40;;
11084;SDS011;5596;46.826;8.650;2022-10-04T11:14:32;1.20;;;1.10;;
11084;SDS011;5596;46.826;8.650;2022-10-04T11:17:16;3.43;;;1.40;;
11084;SDS011;5596;46.826;8.650;2022-10-04T11:20:19;2.33;;;1.60;;
11084;SDS011;5596;46.826;8.650;2022-10-04T11:26:39;3.97;;;1.57;;
11084;SDS011;5596;46.826;8.650;2022-10-04T11:29:39;1.40;;;1.30;;
11084;SDS011;5596;46.826;8.650;2022-10-04T11:35:55;1.33;;;1.23;;
11084;SDS011;5596;46.826;8.650;2022-10-04T11:41:31;2.40;;;1.80;;
11084;SDS011;5596;46.826;8.650;2022-10-04T11:44:28;1.70;;;1.60;;
11084;SDS011;5596;46.826;8.650;2022-10-04T11:47:08;4.00;;;2.00;;
11084;SDS011;5596;46.826;8.650;2022-10-04T11:49:49;4.80;;;1.80;;
11084;SDS011;5596;46.826;8.650;2022-10-04T11:58:47;4.13;;;1.97;;
11084;SDS011;5596;46.826;8.650;2022-10-04T12:04:32;3.03;;;1.60;;
11084;SDS011;5596;46.826;8.650;2022-10-04T12:10:16;1.77;;;1.67;;
11084;SDS011;5596;46.826;8.650;2022-10-04T12:12:53;1.80;;;1.70;;
11084;SDS011;5596;46.826;8.650;2022-10-04T12:15:42;2.43;;;1.90;;
11084;SDS011;5596;46.826;8.650;2022-10-04T12:18:27;1.75;;;1.65;;
11084;SDS011;5596;46.826;8.650;2022-10-04T12:24:23;2.33;;;1.75;;
11084;SDS011;5596;46.826;8.650;2022-10-04T12:27:17;2.10;;;1.70;;
11084;SDS011;5596;46.826;8.650;2022-10-04T12:30:03;3.13;;;1.67;;
11084;SDS011;5596;46.826;8.650;2022-10-04T12:35:52;1.88;;;1.65;;
11084;SDS011;5596;46.826;8.650;2022-10-04T12:38:33;3.65;;;1.88;;
11084;SDS011;5596;46.826;8.650;2022-10-04T12:41:19;5.10;;;2.30;;
11084;SDS011;5596;46.826;8.650;2022-10-04T12:43:59;4.45;;;1.80;;
11084;SDS011;5596;46.826;8.650;2022-10-04T12:46:45;1.80;;;1.20;;
11084;SDS011;5596;46.826;8.650;2022-10-04T12:49:29;2.08;;;1.50;;
11084;SDS011;5596;46.826;8.650;2022-10-04T12:52:07;4.03;;;1.60;;
11084;SDS011;5596;46.826;8.650;2022-10-04T12:54:42;2.33;;;1.50;;
11084;SDS011;5596;46.826;8.650;2022-10-04T13:00:14;2.80;;;1.70;;
11084;SDS011;5596;46.826;8.650;2022-10-04T13:06:06;4.35;;;1.30;;
11084;SDS011;5596;46.826;8.650;2022-10-04T13:08:42;2.15;;;1.58;;
11084;SDS011;5596;46.826;8.650;2022-10-04T13:11:27;1.50;;;1.40;;
11084;SDS011;5596;46.826;8.650;2022-10-04T13:17:09;1.95;;;1.50;;
11084;SDS011;5596;46.826;8.650;2022-10-04T13:19:50;3.55;;;1.50;;
11084;SDS011;5596;46.826;8.650;2022-10-04T13:22:31;2.05;;;1.50;;
11084;SDS011;5596;46.826;8.650;2022-10-04T13:25:12;3.17;;;1.67;;
11084;SDS011;5596;46.826;8.650;2022-10-04T13:27:51;2.38;;;1.63;;
11084;SDS011;5596;46.826;8.650;2022-10-04T13:30:25;1.95;;;1.63;;
11084;SDS011;5596;46.826;8.650;2022-10-04T13:32:59;1.92;;;1.40;;
11084;SDS011;5596;46.826;8.650;2022-10-04T13:35:31;2.72;;;1.40;;
11084;SDS011;5596;46.826;8.650;2022-10-04T13:38:12;3.30;;;1.58;;
11084;SDS011;5596;46.826;8.650;2022-10-04T13:40:55;2.53;;;1.40;;
11084;SDS011;5596;46.826;8.650;2022-10-04T13:46:45;1.95;;;1.40;;
11084;SDS011;5596;46.826;8.650;2022-10-04T13:49:26;2.50;;;1.50;;
11084;SDS011;5596;46.826;8.650;2022-10-04T13:52:13;1.98;;;1.38;;
11084;SDS011;5596;46.826;8.650;2022-10-04T13:55:11;4.32;;;1.40;;
11084;SDS011;5596;46.826;8.650;2022-10-04T13:58:11;3.05;;;1.40;;
11084;SDS011;5596;46.826;8.650;2022-10-04T14:00:50;4.63;;;1.40;;
11084;SDS011;5596;46.826;8.650;2022-10-04T14:03:38;3.70;;;1.45;;
11084;SDS011;5596;46.826;8.650;2022-10-04T14:06:28;2.00;;;1.70;;
11084;SDS011;5596;46.826;8.650;2022-10-04T14:12:25;3.35;;;1.80;;
11084;SDS011;5596;46.826;8.650;2022-10-04T14:18:31;2.08;;;1.30;;
11084;SDS011;5596;46.826;8.650;2022-10-04T14:24:21;3.00;;;1.58;;
11084;SDS011;5596;46.826;8.650;2022-10-04T14:30:12;3.25;;;1.90;;
11084;SDS011;5596;46.826;8.650;2022-10-04T14:32:49;2.38;;;1.80;;
11084;SDS011;5596;46.826;8.650;2022-10-04T14:35:32;2.87;;;1.50;;
11084;SDS011;5596;46.826;8.650;2022-10-04T14:44:27;6.37;;;1.93;;
11084;SDS011;5596;46.826;8.650;2022-10-04T14:47:38;4.67;;;1.63;;
11084;SDS011;5596;46.826;8.650;2022-10-04T14:50:27;2.83;;;2.00;;
11084;SDS011;5596;46.826;8.650;2022-10-04T14:53:04;2.07;;;1.90;;
11084;SDS011;5596;46.826;8.650;2022-10-04T14:55:53;4.57;;;2.10;;
11084;SDS011;5596;46.826;8.650;2022-10-04T14:58:35;2.20;;;1.80;;
11084;SDS011;5596;46.826;8.650;2022-10-04T15:01:17;3.00;;;2.40;;
11084;SDS011;5596;46.826;8.650;2022-10-04T15:03:52;2.87;;;2.07;;
11084;SDS011;5596;46.826;8.650;2022-10-04T15:06:36;2.53;;;1.80;;
11084;SDS011;5596;46.826;8.650;2022-10-04T15:09:30;3.50;;;2.07;;
11084;SDS011;5596;46.826;8.650;2022-10-04T15:12:21;2.50;;;2.07;;
11084;SDS011;5596;46.826;8.650;2022-10-04T15:18:10;4.03;;;2.17;;
11084;SDS011;5596;46.826;8.650;2022-10-04T15:20:53;2.67;;;2.43;;
11084;SDS011;5596;46.826;8.650;2022-10-04T15:23:32;4.07;;;2.60;;
11084;SDS011;5596;46.826;8.650;2022-10-04T15:26:05;6.33;;;2.60;;
11084;SDS011;5596;46.826;8.650;2022-10-04T15:28:59;4.03;;;2.30;;
11084;SDS011;5596;46.826;8.650;2022-10-04T15:31:33;3.57;;;2.10;;
11084;SDS011;5596;46.826;8.650;2022-10-04T15:34:09;2.17;;;1.80;;
11084;SDS011;5596;46.826;8.650;2022-10-04T15:36:58;4.23;;;2.00;;
11084;SDS011;5596;46.826;8.650;2022-10-04T15:42:26;1.93;;;1.70;;
11084;SDS011;5596;46.826;8.650;2022-10-04T15:44:59;2.23;;;1.80;;
11084;SDS011;5596;46.826;8.650;2022-10-04T15:47:58;4.80;;;2.13;;
11084;SDS011;5596;46.826;8.650;2022-10-04T15:50:36;1.77;;;1.60;;
11084;SDS011;5596;46.826;8.650;2022-10-04T15:53:25;2.47;;;2.00;;
11084;SDS011;5596;46.826;8.650;2022-10-04T15:59:16;3.70;;;2.00;;
11084;SDS011;5596;46.826;8.650;2022-10-04T16:02:08;2.83;;;1.90;;
11084;SDS011;5596;46.826;8.650;2022-10-04T16:04:54;2.50;;;1.80;;
11084;SDS011;5596;46.826;8.650;2022-10-04T16:07:31;3.00;;;2.40;;
11084;SDS011;5596;46.826;8.650;2022-10-04T16:10:16;3.57;;;2.20;;
11084;SDS011;5596;46.826;8.650;2022-10-04T16:13:02;3.03;;;2.50;;
11084;SDS011;5596;46.826;8.650;2022-10-04T16:16:18;6.00;;;3.77;;
11084;SDS011;5596;46.826;8.650;2022-10-04T16:19:00;3.17;;;2.73;;
11084;SDS011;5596;46.826;8.650;2022-10-04T16:21:36;2.80;;;2.13;;
11084;SDS011;5596;46.826;8.650;2022-10-04T16:27:37;5.10;;;2.37;;
11084;SDS011;5596;46.826;8.650;2022-10-04T16:30:11;3.17;;;2.23;;
11084;SDS011;5596;46.826;8.650;2022-10-04T16:32:58;4.33;;;1.93;;
11084;SDS011;5596;46.826;8.650;2022-10-04T16:35:33;4.33;;;1.97;;
11084;SDS011;5596;46.826;8.650;2022-10-04T16:38:14;2.63;;;1.97;;
11084;SDS011;5596;46.826;8.650;2022-10-04T16:40:57;4.33;;;2.10;;
11084;SDS011;5596;46.826;8.650;2022-10-04T16:43:33;1.90;;;1.70;;
11084;SDS011;5596;46.826;8.650;2022-10-04T16:46:07;3.67;;;2.10;;
11084;SDS011;5596;46.826;8.650;2022-10-04T16:48:46;2.37;;;1.80;;
11084;SDS011;5596;46.826;8.650;2022-10-04T16:51:21;2.67;;;1.90;;
11084;SDS011;5596;46.826;8.650;2022-10-04T16:54:01;2.40;;;1.83;;
11084;SDS011;5596;46.826;8.650;2022-10-04T16:59:42;2.37;;;2.10;;
11084;SDS011;5596;46.826;8.650;2022-10-04T17:02:17;3.87;;;1.80;;
11084;SDS011;5596;46.826;8.650;2022-10-04T17:05:18;2.80;;;2.40;;
11084;SDS011;5596;46.826;8.650;2022-10-04T17:11:05;4.20;;;2.10;;
11084;SDS011;5596;46.826;8.650;2022-10-04T17:13:46;2.07;;;1.70;;
11084;SDS011;5596;46.826;8.650;2022-10-04T17:16:20;3.30;;;2.43;;
11084;SDS011;5596;46.826;8.650;2022-10-04T17:19:04;2.53;;;1.97;;
11084;SDS011;5596;46.826;8.650;2022-10-04T17:21:46;3.67;;;2.00;;
11084;SDS011;5596;46.826;8.650;2022-10-04T17:24:24;4.40;;;1.87;;
11084;SDS011;5596;46.826;8.650;2022-10-04T17:27:12;2.13;;;1.63;;
11084;SDS011;5596;46.826;8.650;2022-10-04T17:29:51;2.07;;;1.70;;
11084;SDS011;5596;46.826;8.650;2022-10-04T17:32:30;2.37;;;1.87;;
11084;SDS011;5596;46.826;8.650;2022-10-04T17:35:14;1.90;;;1.63;;
11084;SDS011;5596;46.826;8.650;2022-10-04T17:38:06;4.27;;;2.00;;
11084;SDS011;5596;46.826;8.650;2022-10-04T17:40:44;4.53;;;1.90;;
11084;SDS011;5596;46.826;8.650;2022-10-04T17:43:21;5.57;;;1.90;;
11084;SDS011;5596;46.826;8.650;2022-10-04T17:45:58;3.30;;;2.00;;
11084;SDS011;5596;46.826;8.650;2022-10-04T17:48:40;1.53;;;1.40;;
11084;SDS011;5596;46.826;8.650;2022-10-04T17:51:32;3.13;;;1.30;;
11084;SDS011;5596;46.826;8.650;2022-10-04T17:54:23;1.97;;;1.57;;
11084;SDS011;5596;46.826;8.650;2022-10-04T17:57:18;2.00;;;1.80;;
11084;SDS011;5596;46.826;8.650;2022-10-04T17:59:52;3.20;;;1.50;;
11084;SDS011;5596;46.826;8.650;2022-10-04T18:02:26;1.13;;;1.10;;
11084;SDS011;5596;46.826;8.650;2022-10-04T18:05:13;1.47;;;1.37;;
11084;SDS011;5596;46.826;8.650;2022-10-04T18:07:46;3.97;;;1.90;;
11084;SDS011;5596;46.826;8.650;2022-10-04T18:10:20;4.00;;;2.23;;
11084;SDS011;5596;46.826;8.650;2022-10-04T18:12:56;3.00;;;1.80;;
11084;SDS011;5596;46.826;8.650;2022-10-04T18:15:29;3.37;;;1.87;;
11084;SDS011;5596;46.826;8.650;2022-10-04T18:21:02;1.73;;;1.30;;
11084;SDS011;5596;46.826;8.650;2022-10-04T18:23:33;3.73;;;2.00;;
11084;SDS011;5596;46.826;8.650;2022-10-04T18:26:09;4.00;;;2.53;;
11084;SDS011;5596;46.826;8.650;2022-10-04T18:28:43;3.33;;;1.60;;
11084;SDS011;5596;46.826;8.650;2022-10-04T18:31:18;2.90;;;1.70;;
11084;SDS011;5596;46.826;8.650;2022-10-04T18:33:53;3.57;;;1.27;;